WXM80 ListenWXM80 Stop

You find our weather info also at:

UK Metoffice

WeatherCloud

Weather Underground

Northeastern Weather Network

AWEKAS

Citizen Weather Observer Program (CWOP)

HAMweather, WeatherForYou, PWS Weather


Weather Underground History page Text

Daily Summary for December 15, 2016 Units:  English    Metric   Both
« Previous Day
Next Day »
Daily Weekly Monthly Yearly Custom
  High: Low: Average:
Temperature: 34.7 °F 21.3 °F 26.4 °F
Dew Point: 19.1 °F 0.0 °F 8.6 °F
Humidity: 82 % 37 % 47 %
Wind Speed: 18.0 mph 0.0 mph 9.2 mph
Wind Gust: 31.1 mph - -
Wind:- - West
Pressure: 30.11 in 29.72 in -
Precipitation: 0.00 in    
Historical Graphs
 
 
Tabular Data for December 15, 2016
Time Temperature Dew Point Pressure Wind Wind Speed Wind Gust Humidity Rainfall Rate (Hourly)
00:02 30.5 °F 16.2 °F 29.84 in SW 0.2 mph 1.2 mph 55 % 0.00 in
00:07 30.5 °F 16.2 °F 29.84 in SSW 2.1 mph 3.5 mph 55 % 0.00 in
00:12 30.5 °F 16.2 °F 29.84 in SW 0.6 mph 2.3 mph 55 % 0.00 in
00:17 30.5 °F 15.8 °F 29.84 in SW 2.1 mph 4.6 mph 54 % 0.00 in
00:22 30.6 °F 15.9 °F 29.84 in WSW 0.2 mph 1.2 mph 54 % 0.00 in
00:27 30.8 °F 15.7 °F 29.84 in WSW 3.0 mph 4.0 mph 53 % 0.00 in
00:32 31.1 °F 15.1 °F 29.84 in SW 4.6 mph 6.0 mph 51 % 0.00 in
00:37 31.4 °F 14.9 °F 29.83 in NNW 3.6 mph 6.0 mph 50 % 0.00 in
00:43 31.7 °F 14.7 °F 29.83 in SW 1.8 mph 11.5 mph 49 % 0.00 in
00:48 32.3 °F 15.3 °F 29.83 in WSW 5.5 mph 10.4 mph 49 % 0.00 in
00:53 32.6 °F 14.6 °F 29.83 in WSW 5.3 mph 11.5 mph 47 % 0.00 in
00:58 33.1 °F 14.5 °F 29.83 in WNW 7.7 mph 15.0 mph 46 % 0.00 in
01:03 33.5 °F 14.9 °F 29.82 in WSW 4.1 mph 9.2 mph 46 % 0.00 in
01:08 33.8 °F 15.7 °F 29.82 in SW 3.1 mph 6.9 mph 47 % 0.00 in
01:13 33.9 °F 14.8 °F 29.82 in West 5.9 mph 10.4 mph 45 % 0.00 in
01:18 34.1 °F 14.9 °F 29.82 in WSW 4.9 mph 6.9 mph 45 % 0.00 in
01:23 34.1 °F 15.5 °F 29.82 in WSW 4.7 mph 6.9 mph 46 % 0.00 in
01:28 34.2 °F 15.5 °F 29.82 in WSW 2.7 mph 11.5 mph 46 % 0.00 in
01:34 34.2 °F 15.0 °F 29.81 in West 7.0 mph 12.7 mph 45 % 0.00 in
01:39 34.2 °F 14.5 °F 29.81 in WSW 6.8 mph 11.5 mph 44 % 0.00 in
01:44 34.3 °F 15.1 °F 29.81 in SW 3.9 mph 6.9 mph 45 % 0.00 in
01:49 34.2 °F 15.0 °F 29.81 in WSW 5.6 mph 11.5 mph 45 % 0.00 in
01:54 34.2 °F 15.0 °F 29.80 in West 3.2 mph 7.0 mph 45 % 0.00 in
01:59 34.2 °F 15.0 °F 29.80 in WSW 7.6 mph 15.0 mph 45 % 0.00 in
02:04 34.3 °F 16.1 °F 29.80 in WSW 5.6 mph 8.1 mph 47 % 0.00 in
02:14 34.3 °F 16.1 °F 29.79 in WNW 7.0 mph 8.1 mph 47 % 0.00 in
02:19 34.3 °F 16.1 °F 29.80 in West 8.0 mph 15.0 mph 47 % 0.00 in
02:24 34.5 °F 15.8 °F 29.79 in West 4.9 mph 10.4 mph 46 % 0.00 in
02:29 34.5 °F 15.8 °F 29.78 in West 7.0 mph 15.0 mph 46 % 0.00 in
02:34 34.6 °F 15.9 °F 29.78 in SW 6.0 mph 16.0 mph 46 % 0.00 in
02:39 34.6 °F 15.9 °F 29.78 in West 6.9 mph 19.6 mph 46 % 0.00 in
02:44 34.6 °F 16.5 °F 29.78 in WSW 5.0 mph 13.0 mph 47 % 0.00 in
02:49 34.7 °F 17.0 °F 29.78 in WSW 9.0 mph 18.0 mph 48 % 0.00 in
02:54 34.7 °F 16.0 °F 29.77 in WSW 7.1 mph 13.8 mph 46 % 0.00 in
03:05 34.5 °F 16.3 °F 29.77 in WSW 5.6 mph 9.2 mph 47 % 0.00 in
03:10 34.4 °F 16.2 °F 29.76 in WNW 9.2 mph 11.5 mph 47 % 0.00 in
03:15 34.3 °F 15.6 °F 29.76 in WSW 10.7 mph 17.3 mph 46 % 0.00 in
03:20 34.2 °F 16.0 °F 29.76 in WNW 5.2 mph 10.4 mph 47 % 0.00 in
03:25 34.1 °F 15.9 °F 29.76 in WSW 10.9 mph 16.1 mph 47 % 0.00 in
03:30 34.1 °F 16.4 °F 29.75 in WSW 8.1 mph 16.1 mph 48 % 0.00 in
03:35 34.1 °F 16.4 °F 29.75 in SW 7.8 mph 15.0 mph 48 % 0.00 in
03:40 34.0 °F 16.3 °F 29.75 in West 7.5 mph 11.5 mph 48 % 0.00 in
03:45 34.0 °F 16.8 °F 29.74 in West 7.6 mph 12.0 mph 49 % 0.00 in
03:51 34.0 °F 15.9 °F 29.74 in SW 9.9 mph 16.1 mph 47 % 0.00 in
03:56 33.9 °F 15.8 °F 29.74 in WSW 5.1 mph 17.3 mph 47 % 0.00 in
04:01 33.9 °F 15.3 °F 29.74 in SW 9.0 mph 17.3 mph 46 % 0.00 in
04:06 33.9 °F 15.8 °F 29.74 in SW 8.6 mph 13.8 mph 47 % 0.00 in
04:11 33.8 °F 15.2 °F 29.73 in West 9.5 mph 18.0 mph 46 % 0.00 in
04:16 33.8 °F 14.7 °F 29.73 in WNW 9.9 mph 18.4 mph 45 % 0.00 in
04:21 33.6 °F 14.0 °F 29.73 in WNW 11.0 mph 25.3 mph 44 % 0.00 in
04:26 33.5 °F 14.9 °F 29.73 in WSW 8.3 mph 15.0 mph 46 % 0.00 in
04:31 33.5 °F 15.4 °F 29.73 in WSW 8.6 mph 12.7 mph 47 % 0.00 in
04:36 33.4 °F 15.8 °F 29.72 in WSW 8.0 mph 11.5 mph 48 % 0.00 in
04:42 33.3 °F 14.7 °F 29.72 in WSW 10.2 mph 26.5 mph 46 % 0.00 in
04:47 33.2 °F 13.6 °F 29.73 in WSW 8.7 mph 23.0 mph 44 % 0.00 in
04:52 33.0 °F 12.9 °F 29.72 in West 12.9 mph 21.0 mph 43 % 0.00 in
04:57 32.9 °F 12.8 °F 29.72 in WNW 9.9 mph 17.3 mph 43 % 0.00 in
05:02 32.7 °F 13.2 °F 29.72 in WNW 13.2 mph 25.3 mph 44 % 0.00 in
05:07 32.6 °F 12.0 °F 29.73 in WSW 14.4 mph 26.5 mph 42 % 0.00 in
05:12 32.4 °F 11.3 °F 29.72 in SW 8.8 mph 12.7 mph 41 % 0.00 in
05:17 32.3 °F 12.3 °F 29.72 in WSW 6.6 mph 12.7 mph 43 % 0.00 in
05:22 32.1 °F 13.1 °F 29.72 in West 8.5 mph 18.4 mph 45 % 0.00 in
05:27 32.0 °F 13.0 °F 29.72 in WNW 6.8 mph 15.0 mph 45 % 0.00 in
05:33 31.8 °F 13.3 °F 29.72 in WSW 7.2 mph 15.0 mph 46 % 0.00 in
05:38 31.7 °F 13.7 °F 29.73 in WSW 9.4 mph 15.0 mph 47 % 0.00 in
05:43 31.5 °F 13.6 °F 29.72 in WNW 9.8 mph 17.3 mph 47 % 0.00 in
05:48 31.3 °F 11.9 °F 29.73 in WNW 11.5 mph 23.0 mph 44 % 0.00 in
05:53 31.1 °F 12.2 °F 29.72 in WNW 14.1 mph 19.6 mph 45 % 0.00 in
05:58 31.0 °F 13.1 °F 29.73 in West 7.9 mph 16.1 mph 47 % 0.00 in
06:03 30.8 °F 12.4 °F 29.73 in WNW 6.2 mph 11.5 mph 46 % 0.00 in
06:08 30.7 °F 11.3 °F 29.74 in WSW 10.8 mph 15.0 mph 44 % 0.00 in
06:13 30.5 °F 10.1 °F 29.74 in WSW 10.9 mph 14.0 mph 42 % 0.00 in
06:18 30.3 °F 9.4 °F 29.74 in SW 9.2 mph 27.6 mph 41 % 0.00 in
06:23 30.1 °F 10.3 °F 29.74 in WSW 8.2 mph 10.4 mph 43 % 0.00 in
06:28 30.0 °F 11.2 °F 29.75 in WSW 7.4 mph 19.6 mph 45 % 0.00 in
06:34 29.9 °F 12.1 °F 29.75 in WNW 9.9 mph 10.4 mph 47 % 0.00 in
06:39 29.9 °F 13.9 °F 29.76 in West 7.6 mph 17.3 mph 51 % 0.00 in
06:44 29.8 °F 13.4 °F 29.76 in WNW 4.5 mph 12.0 mph 50 % 0.00 in
06:49 29.6 °F 12.8 °F 29.76 in WSW 7.9 mph 16.0 mph 49 % 0.00 in
06:54 29.4 °F 11.6 °F 29.77 in WSW 6.7 mph 11.5 mph 47 % 0.00 in
06:59 29.2 °F 11.4 °F 29.76 in West 8.4 mph 15.0 mph 47 % 0.00 in
07:04 29.0 °F 12.2 °F 29.77 in WSW 4.6 mph 10.0 mph 49 % 0.00 in
07:09 28.8 °F 11.6 °F 29.77 in WNW 9.3 mph 13.8 mph 48 % 0.00 in
07:14 28.6 °F 11.8 °F 29.78 in SW 5.1 mph 20.0 mph 49 % 0.00 in
07:19 28.5 °F 10.8 °F 29.77 in West 8.0 mph 20.0 mph 47 % 0.00 in
07:24 28.3 °F 11.1 °F 29.77 in West 7.0 mph 20.0 mph 48 % 0.00 in
07:29 28.1 °F 10.4 °F 29.77 in West 9.0 mph 16.0 mph 47 % 0.00 in
07:39 27.9 °F 10.2 °F 29.78 in West 8.0 mph 18.0 mph 47 % 0.00 in
07:44 27.8 °F 10.6 °F 29.78 in West 10.0 mph 15.0 mph 48 % 0.00 in
07:49 27.8 °F 11.1 °F 29.78 in WNW 10.0 mph 22.0 mph 49 % 0.00 in
07:54 27.8 °F 11.5 °F 29.78 in WNW 10.0 mph 17.0 mph 50 % 0.00 in
08:00 27.8 °F 11.5 °F 29.78 in West 8.4 mph 18.4 mph 50 % 0.00 in
08:05 27.8 °F 11.1 °F 29.79 in West 11.4 mph 23.0 mph 49 % 0.00 in
08:10 27.8 °F 11.5 °F 29.79 in SW 11.8 mph 18.4 mph 50 % 0.00 in
08:15 27.6 °F 11.8 °F 29.79 in West 11.2 mph 19.6 mph 51 % 0.00 in
08:20 27.5 °F 11.3 °F 29.80 in WNW 6.2 mph 19.6 mph 50 % 0.00 in
08:25 27.4 °F 11.2 °F 29.80 in SW 7.8 mph 11.5 mph 50 % 0.00 in
08:30 27.4 °F 11.6 °F 29.80 in North 10.0 mph 19.0 mph 51 % 0.00 in
08:35 27.3 °F 12.8 °F 29.80 in NW 7.4 mph 13.8 mph 54 % 0.00 in
08:40 27.2 °F 13.1 °F 29.80 in NW 5.1 mph 13.8 mph 55 % 0.00 in
08:45 27.2 °F 12.7 °F 29.80 in WNW 5.4 mph 18.4 mph 54 % 0.00 in
08:51 27.1 °F 12.2 °F 29.81 in WNW 9.6 mph 18.4 mph 53 % 0.00 in
08:56 27.1 °F 11.8 °F 29.80 in NW 9.6 mph 17.3 mph 52 % 0.00 in
09:01 27.1 °F 10.9 °F 29.81 in West 7.8 mph 21.9 mph 50 % 0.00 in
09:06 27.0 °F 11.3 °F 29.81 in NW 10.4 mph 15.0 mph 51 % 0.00 in
09:11 26.9 °F 11.2 °F 29.81 in WNW 5.8 mph 16.1 mph 51 % 0.00 in
09:16 27.0 °F 11.3 °F 29.81 in NNW 12.0 mph 19.6 mph 51 % 0.00 in
09:21 26.9 °F 10.7 °F 29.82 in NW 7.1 mph 15.0 mph 50 % 0.00 in
09:26 26.8 °F 10.6 °F 29.82 in NW 12.0 mph 20.0 mph 50 % 0.00 in
09:31 26.8 °F 14.8 °F 29.83 in NW 9.7 mph 17.0 mph 60 % 0.00 in
09:36 26.2 °F 18.4 °F 29.84 in NW 10.5 mph 28.8 mph 72 % 0.00 in
09:41 24.9 °F 18.7 °F 29.84 in NNW 9.4 mph 18.4 mph 77 % 0.00 in
09:46 24.2 °F 18.9 °F 29.85 in NW 11.6 mph 20.7 mph 80 % 0.00 in
09:52 23.8 °F 19.1 °F 29.85 in NNW 7.0 mph 16.1 mph 82 % 0.00 in
09:57 23.5 °F 18.2 °F 29.85 in West 8.4 mph 14.0 mph 80 % 0.00 in
10:02 23.3 °F 17.7 °F 29.85 in WNW 13.1 mph 21.9 mph 79 % 0.00 in
10:07 23.1 °F 16.4 °F 29.85 in West 9.8 mph 20.7 mph 75 % 0.00 in
10:12 23.1 °F 16.0 °F 29.84 in WNW 10.5 mph 16.1 mph 74 % 0.00 in
10:17 23.1 °F 15.7 °F 29.84 in NW 9.7 mph 20.0 mph 73 % 0.00 in
10:22 23.2 °F 14.9 °F 29.84 in NW 9.3 mph 13.0 mph 70 % 0.00 in
10:27 23.5 °F 13.8 °F 29.84 in NW 9.3 mph 19.6 mph 66 % 0.00 in
10:32 23.9 °F 12.0 °F 29.83 in WNW 9.1 mph 24.2 mph 60 % 0.00 in
10:37 24.4 °F 11.7 °F 29.83 in NNW 6.9 mph 26.5 mph 58 % 0.00 in
10:43 24.8 °F 11.7 °F 29.83 in West 9.0 mph 20.7 mph 57 % 0.00 in
10:48 25.0 °F 9.0 °F 29.83 in SW 12.6 mph 21.9 mph 50 % 0.00 in
10:53 24.9 °F 8.0 °F 29.83 in NW 8.1 mph 20.7 mph 48 % 0.00 in
10:58 24.9 °F 6.5 °F 29.83 in NNW 12.3 mph 19.6 mph 45 % 0.00 in
11:03 25.0 °F 8.0 °F 29.83 in NW 11.4 mph 20.7 mph 48 % 0.00 in
11:08 25.2 °F 7.8 °F 29.83 in WNW 12.4 mph 26.0 mph 47 % 0.00 in
11:13 25.4 °F 6.0 °F 29.83 in NW 12.4 mph 26.5 mph 43 % 0.00 in
11:18 25.4 °F 4.9 °F 29.82 in West 9.5 mph 27.6 mph 41 % 0.00 in
11:23 25.5 °F 5.6 °F 29.82 in WNW 10.5 mph 24.2 mph 42 % 0.00 in
11:29 25.5 °F 5.0 °F 29.83 in WNW 14.3 mph 24.2 mph 41 % 0.00 in
11:34 25.5 °F 5.0 °F 29.83 in NNW 11.4 mph 26.5 mph 41 % 0.00 in
11:39 25.4 °F 4.9 °F 29.83 in WNW 15.6 mph 26.5 mph 41 % 0.00 in
11:44 25.4 °F 4.9 °F 29.83 in NNW 13.9 mph 26.0 mph 41 % 0.00 in
11:49 25.4 °F 3.3 °F 29.82 in WNW 9.9 mph 19.6 mph 38 % 0.00 in
11:54 25.4 °F 4.4 °F 29.82 in WNW 5.4 mph 24.2 mph 40 % 0.00 in
11:59 25.5 °F 3.9 °F 29.83 in WNW 13.1 mph 24.2 mph 39 % 0.00 in
12:04 25.3 °F 3.8 °F 29.83 in SSW 12.8 mph 23.0 mph 39 % 0.00 in
12:09 25.2 °F 2.5 °F 29.83 in SW 11.3 mph 24.2 mph 37 % 0.00 in
12:14 25.1 °F 4.1 °F 29.83 in WNW 18.0 mph 25.3 mph 40 % 0.00 in
12:19 25.1 °F 4.1 °F 29.83 in WNW 7.0 mph 19.6 mph 40 % 0.00 in
12:24 25.0 °F 2.9 °F 29.84 in WNW 13.0 mph 28.0 mph 38 % 0.00 in
12:29 24.9 °F 2.3 °F 29.84 in WNW 12.0 mph 21.0 mph 37 % 0.00 in
12:34 24.9 °F 2.8 °F 29.84 in WNW 10.0 mph 23.0 mph 38 % 0.00 in
12:39 24.8 °F 3.3 °F 29.84 in NW 10.0 mph 20.0 mph 39 % 0.00 in
12:44 24.9 °F 2.8 °F 29.84 in WNW 9.0 mph 24.0 mph 38 % 0.00 in
12:49 25.0 °F 5.1 °F 29.85 in NW 12.0 mph 27.0 mph 42 % 0.00 in
12:54 25.0 °F 2.9 °F 29.84 in NW 10.0 mph 21.0 mph 38 % 0.00 in
12:59 25.2 °F 5.8 °F 29.84 in WNW 7.9 mph 16.0 mph 43 % 0.00 in
13:04 25.4 °F 6.5 °F 29.85 in NW 13.0 mph 28.0 mph 44 % 0.00 in
13:09 25.4 °F 4.4 °F 29.85 in NW 10.0 mph 28.0 mph 40 % 0.00 in
13:14 25.2 °F 4.2 °F 29.85 in WNW 7.0 mph 20.0 mph 40 % 0.00 in
13:19 25.1 °F 5.2 °F 29.85 in WNW 11.0 mph 20.7 mph 42 % 0.00 in
13:24 25.0 °F 3.5 °F 29.86 in NW 9.0 mph 23.0 mph 39 % 0.00 in
13:29 24.8 °F 4.4 °F 29.86 in NW 8.0 mph 25.0 mph 41 % 0.00 in
13:39 24.6 °F 4.8 °F 29.87 in NNW 9.0 mph 21.0 mph 42 % 0.00 in
13:44 24.6 °F 4.7 °F 29.87 in NW 9.0 mph 20.0 mph 42 % 0.00 in
13:49 24.6 °F 3.7 °F 29.87 in NW 6.0 mph 22.0 mph 40 % 0.00 in
13:54 24.5 °F 3.6 °F 29.87 in NW 10.0 mph 17.0 mph 40 % 0.00 in
13:59 24.6 °F 5.8 °F 29.88 in WNW 10.0 mph 23.0 mph 44 % 0.00 in
14:05 24.5 °F 6.2 °F 29.88 in NW 7.9 mph 19.6 mph 45 % 0.00 in
14:10 24.4 °F 8.4 °F 29.89 in NNW 13.3 mph 19.6 mph 50 % 0.00 in
14:15 24.0 °F 9.3 °F 29.89 in NNW 10.0 mph 18.4 mph 53 % 0.00 in
14:20 23.7 °F 10.7 °F 29.90 in NW 11.5 mph 18.0 mph 57 % 0.00 in
14:25 23.5 °F 10.9 °F 29.90 in NW 9.0 mph 15.0 mph 58 % 0.00 in
14:30 23.3 °F 10.3 °F 29.91 in NW 10.1 mph 17.3 mph 57 % 0.00 in
14:35 23.2 °F 8.6 °F 29.91 in WNW 4.8 mph 11.5 mph 53 % 0.00 in
14:40 23.1 °F 7.6 °F 29.91 in NNW 12.1 mph 19.0 mph 51 % 0.00 in
14:45 23.1 °F 7.2 °F 29.91 in NW 11.6 mph 15.0 mph 50 % 0.00 in
14:50 23.2 °F 6.8 °F 29.92 in NW 13.0 mph 23.0 mph 49 % 0.00 in
14:56 23.2 °F 5.0 °F 29.92 in NNW 11.4 mph 23.0 mph 45 % 0.00 in
15:01 23.1 °F 2.9 °F 29.92 in West 11.7 mph 20.7 mph 41 % 0.00 in
15:06 23.1 °F 3.4 °F 29.92 in West 12.4 mph 19.6 mph 42 % 0.00 in
15:11 23.0 °F 3.8 °F 29.93 in WSW 7.5 mph 17.3 mph 43 % 0.00 in
15:16 23.0 °F 3.3 °F 29.93 in WNW 6.9 mph 12.7 mph 42 % 0.00 in
15:21 23.0 °F 4.8 °F 29.93 in NW 10.4 mph 20.0 mph 45 % 0.00 in
15:26 23.0 °F 4.8 °F 29.94 in West 8.4 mph 12.7 mph 45 % 0.00 in
15:31 22.9 °F 2.7 °F 29.93 in WNW 5.6 mph 18.4 mph 41 % 0.00 in
15:36 22.9 °F 3.2 °F 29.93 in NW 9.3 mph 18.4 mph 42 % 0.00 in
15:41 23.0 °F 3.3 °F 29.93 in NW 7.7 mph 18.0 mph 42 % 0.00 in
15:52 22.9 °F 1.6 °F 29.94 in North 8.0 mph 25.3 mph 39 % 0.00 in
15:57 22.9 °F 2.1 °F 29.94 in WSW 14.3 mph 24.2 mph 40 % 0.00 in
16:02 22.9 °F 1.6 °F 29.95 in WNW 7.4 mph 18.4 mph 39 % 0.00 in
16:07 22.9 °F 1.6 °F 29.94 in NW 11.1 mph 21.9 mph 39 % 0.00 in
16:12 22.9 °F 2.1 °F 29.94 in NNW 7.8 mph 21.9 mph 40 % 0.00 in
16:17 22.8 °F 1.5 °F 29.95 in WSW 9.6 mph 20.7 mph 39 % 0.00 in
16:22 22.7 °F 1.4 °F 29.94 in SW 11.2 mph 17.3 mph 39 % 0.00 in
16:27 22.7 °F 2.5 °F 29.95 in WNW 8.9 mph 13.8 mph 41 % 0.00 in
16:32 22.6 °F 2.4 °F 29.95 in WNW 9.2 mph 17.3 mph 41 % 0.00 in
16:37 22.6 °F 1.9 °F 29.95 in NW 11.4 mph 17.0 mph 40 % 0.00 in
16:42 22.6 °F 1.3 °F 29.96 in NW 10.2 mph 18.0 mph 39 % 0.00 in
16:48 22.6 °F 1.3 °F 29.96 in West 8.1 mph 15.0 mph 39 % 0.00 in
16:53 22.6 °F 1.9 °F 29.96 in West 9.9 mph 19.0 mph 40 % 0.00 in
16:58 22.5 °F 1.8 °F 29.97 in West 8.2 mph 16.1 mph 40 % 0.00 in
17:03 22.5 °F 0.7 °F 29.98 in NW 11.9 mph 26.5 mph 38 % 0.00 in
17:08 22.4 °F 0.0 °F 29.97 in West 10.8 mph 17.3 mph 37 % 0.00 in
17:13 22.4 °F 0.0 °F 29.97 in West 11.7 mph 21.9 mph 37 % 0.00 in
17:18 22.4 °F 1.7 °F 29.98 in WNW 11.0 mph 19.6 mph 40 % 0.00 in
17:23 22.3 °F 1.1 °F 29.99 in WNW 11.7 mph 19.6 mph 39 % 0.00 in
17:28 22.3 °F 1.6 °F 29.98 in West 8.3 mph 24.2 mph 40 % 0.00 in
17:33 22.2 °F 1.5 °F 29.99 in WNW 11.9 mph 21.9 mph 40 % 0.00 in
17:38 22.2 °F 1.5 °F 29.99 in WNW 12.5 mph 28.8 mph 40 % 0.00 in
17:43 22.2 °F 2.0 °F 29.99 in WSW 8.5 mph 19.6 mph 41 % 0.00 in
17:49 22.2 °F 1.5 °F 30.00 in NW 12.5 mph 18.0 mph 40 % 0.00 in
17:54 22.2 °F 2.0 °F 30.01 in WNW 12.7 mph 26.5 mph 41 % 0.00 in
17:59 22.2 °F 0.4 °F 30.00 in West 11.2 mph 23.0 mph 38 % 0.00 in
18:04 22.2 °F 2.0 °F 30.00 in WSW 8.5 mph 19.6 mph 41 % 0.00 in
18:09 22.2 °F 2.0 °F 30.00 in WNW 11.5 mph 18.4 mph 41 % 0.00 in
18:14 22.2 °F 2.0 °F 30.01 in SSW 7.6 mph 15.0 mph 41 % 0.00 in
18:19 22.3 °F 2.1 °F 30.01 in WNW 8.7 mph 26.5 mph 41 % 0.00 in
18:24 22.2 °F 2.0 °F 30.01 in West 9.4 mph 14.0 mph 41 % 0.00 in
18:29 22.2 °F 2.0 °F 30.01 in WSW 10.2 mph 20.7 mph 41 % 0.00 in
18:34 22.2 °F 2.6 °F 30.01 in West 14.0 mph 26.0 mph 42 % 0.00 in
18:39 22.3 °F 2.1 °F 30.02 in West 10.0 mph 20.0 mph 41 % 0.00 in
18:44 22.2 °F 1.0 °F 30.02 in WSW 9.0 mph 24.0 mph 39 % 0.00 in
18:49 22.2 °F 2.0 °F 30.02 in West 10.0 mph 24.0 mph 41 % 0.00 in
18:54 22.2 °F 2.5 °F 30.02 in West 12.0 mph 20.0 mph 42 % 0.00 in
18:59 22.2 °F 3.6 °F 30.03 in WSW 11.9 mph 18.4 mph 44 % 0.00 in
19:05 22.3 °F 3.7 °F 30.03 in WSW 8.0 mph 20.7 mph 44 % 0.00 in
19:10 22.3 °F 2.6 °F 30.03 in WSW 11.7 mph 20.7 mph 42 % 0.00 in
19:15 22.3 °F 2.6 °F 30.03 in SW 12.8 mph 21.9 mph 42 % 0.00 in
19:20 22.3 °F 2.6 °F 30.03 in WSW 13.8 mph 23.0 mph 42 % 0.00 in
19:25 22.2 °F 2.6 °F 30.03 in WNW 10.6 mph 20.7 mph 42 % 0.00 in
19:30 22.1 °F 2.5 °F 30.03 in WNW 10.7 mph 19.6 mph 42 % 0.00 in
19:35 22.1 °F 3.0 °F 30.04 in West 10.0 mph 16.0 mph 43 % 0.00 in
19:45 22.0 °F 3.4 °F 30.04 in WNW 11.9 mph 18.4 mph 44 % 0.00 in
19:50 22.1 °F 3.5 °F 30.04 in WNW 15.4 mph 27.0 mph 44 % 0.00 in
19:56 22.1 °F 3.5 °F 30.04 in West 11.4 mph 26.5 mph 44 % 0.00 in
20:01 22.1 °F 3.5 °F 30.03 in WSW 14.2 mph 22.0 mph 44 % 0.00 in
20:06 22.1 °F 3.5 °F 30.03 in WSW 9.9 mph 20.7 mph 44 % 0.00 in
20:11 22.1 °F 4.0 °F 30.04 in WNW 5.4 mph 12.7 mph 45 % 0.00 in
20:16 22.1 °F 3.0 °F 30.04 in WSW 14.1 mph 24.2 mph 43 % 0.00 in
20:21 22.0 °F 3.4 °F 30.04 in SW 13.7 mph 25.3 mph 44 % 0.00 in
20:26 22.1 °F 3.5 °F 30.04 in WSW 13.8 mph 22.0 mph 44 % 0.00 in
20:31 22.1 °F 4.4 °F 30.05 in WNW 7.9 mph 13.8 mph 46 % 0.00 in
20:36 22.1 °F 4.0 °F 30.04 in WSW 11.1 mph 23.0 mph 45 % 0.00 in
20:41 22.1 °F 4.4 °F 30.04 in WNW 6.6 mph 20.7 mph 46 % 0.00 in
20:46 22.1 °F 4.0 °F 30.05 in WSW 13.7 mph 22.0 mph 45 % 0.00 in
20:52 22.0 °F 3.4 °F 30.05 in WSW 12.8 mph 28.8 mph 44 % 0.00 in
20:57 22.0 °F 3.9 °F 30.05 in SW 9.2 mph 19.6 mph 45 % 0.00 in
21:02 22.0 °F 4.3 °F 30.05 in West 9.4 mph 16.1 mph 46 % 0.00 in
21:07 22.0 °F 4.8 °F 30.06 in WSW 10.1 mph 16.0 mph 47 % 0.00 in
21:17 22.0 °F 4.8 °F 30.05 in West 7.0 mph 7.0 mph 47 % 0.00 in
21:22 22.0 °F 4.8 °F 30.05 in WSW 14.5 mph 27.0 mph 47 % 0.00 in
21:27 22.0 °F 4.3 °F 30.06 in Calm   11.5 mph 46 % 0.00 in
21:32 21.8 °F 3.7 °F 30.07 in Calm     45 % 0.00 in
21:37 21.8 °F 4.2 °F 30.06 in NW 4.7 mph 12.0 mph 46 % 0.00 in
21:42 21.8 °F 4.2 °F 30.06 in WNW 10.4 mph 15.0 mph 46 % 0.00 in
21:47 21.8 °F 4.6 °F 30.06 in WNW 13.7 mph 27.0 mph 47 % 0.00 in
21:53 21.8 °F 5.1 °F 30.06 in WSW 9.1 mph 18.4 mph 48 % 0.00 in
21:58 21.9 °F 5.2 °F 30.06 in SW 10.5 mph 31.1 mph 48 % 0.00 in
22:03 21.9 °F 5.6 °F 30.06 in WSW 12.8 mph 23.0 mph 49 % 0.00 in
22:08 21.8 °F 5.1 °F 30.06 in West 12.4 mph 24.2 mph 48 % 0.00 in
22:13 21.8 °F 5.5 °F 30.07 in West 8.1 mph 17.3 mph 49 % 0.00 in
22:18 21.7 °F 5.9 °F 30.07 in WNW 9.9 mph 19.6 mph 50 % 0.00 in
22:23 21.7 °F 5.5 °F 30.07 in WSW 10.2 mph 20.7 mph 49 % 0.00 in
22:28 21.7 °F 5.9 °F 30.07 in West 14.0 mph 24.0 mph 50 % 0.00 in
22:33 21.6 °F 5.4 °F 30.08 in West 14.5 mph 19.6 mph 49 % 0.00 in
22:38 21.6 °F 4.9 °F 30.07 in West 11.6 mph 29.9 mph 48 % 0.00 in
22:44 21.6 °F 5.8 °F 30.08 in West 4.1 mph 13.0 mph 50 % 0.00 in
22:49 21.6 °F 5.8 °F 30.07 in WNW 9.1 mph 20.7 mph 50 % 0.00 in
22:54 21.6 °F 5.4 °F 30.08 in WNW 11.3 mph 25.3 mph 49 % 0.00 in
22:59 21.5 °F 5.7 °F 30.08 in NW 10.2 mph 19.0 mph 50 % 0.00 in
23:04 21.5 °F 5.3 °F 30.09 in WNW 8.4 mph 17.3 mph 49 % 0.00 in
23:09 21.5 °F 6.1 °F 30.09 in WSW 12.3 mph 20.7 mph 51 % 0.00 in
23:14 21.5 °F 6.1 °F 30.09 in West 13.3 mph 19.6 mph 51 % 0.00 in
23:19 21.5 °F 6.1 °F 30.09 in SSW 11.5 mph 20.7 mph 51 % 0.00 in
23:24 21.5 °F 6.1 °F 30.09 in WSW 10.5 mph 19.6 mph 51 % 0.00 in
23:29 21.5 °F 6.6 °F 30.09 in WNW 9.7 mph 13.8 mph 52 % 0.00 in
23:34 21.4 °F 6.5 °F 30.09 in West 15.0 mph 25.0 mph 52 % 0.00 in
23:39 21.4 °F 6.9 °F 30.09 in West 7.0 mph 15.0 mph 53 % 0.00 in
23:44 21.4 °F 7.3 °F 30.10 in West 9.0 mph 20.0 mph 54 % 0.00 in
23:49 21.4 °F 7.3 °F 30.10 in West 7.0 mph 22.0 mph 54 % 0.00 in
23:54 21.4 °F 7.3 °F 30.10 in West 9.0 mph 23.0 mph 54 % 0.00 in
23:59 21.3 °F 6.8 °F 30.11 in West 10.7 mph 18.4 mph 53 % 0.00 in
Crab Meadow Weather
Compliments of Weather Underground - 3 mb

Script developed by  Jim McMurry - jmcmurry@mwt.net Adapted for the template by  Wim van der Kuil - Leuven-Template.eu

Weather Terms: Degree Day - Gauges the amount of heating or cooling needed for a building using 65 degrees as a baseline. To compute degree days, the average temperature for a day is taken and referenced to 65. An average temperature of 50 yields 15 heating degree days, while an average temperature of 75 would yield 10 cooling degree days.